Time;durP1;ratioP1;P1;durP2;ratioP2;P2;SDS_P1;SDS_P2;PMS_P1;PMS_P2;Temp;Humidity;BMP_temperature;BMP_pressure;BME280_temperature;BME280_humidity;BME280_pressure;Samples;Min_cycle;Max_cycle;Signal;HPM_P1;HPM_P2
2022/12/05 00:00:45;;;;;;;;;;;;;;;2.75;100.00;101765.44;5073527;28;20231;-62
2022/12/05 00:03:10;;;;;;;;;;;;;;;2.75;100.00;101768.03;5072896;28;19912;-61
2022/12/05 00:05:38;;;;;;;;;;;;;;;2.78;100.00;101774.16;5073072;28;19916;-67
2022/12/05 00:08:03;;;;;;;;;;;;;;;2.78;100.00;101768.97;5073015;28;19912;-66
2022/12/05 00:10:29;;;;;;;;;;;;;;;2.79;100.00;101765.50;5073018;28;19995;-65
2022/12/05 00:12:54;;;;;;;;;;;;;;;2.82;100.00;101764.69;5073597;28;19923;-62
2022/12/05 00:15:19;;;;;;;;;;;;;;;2.86;100.00;101763.00;5072952;28;19938;-62
2022/12/05 00:17:44;;;;;;;;;;;;;;;2.82;100.00;101760.34;5072228;28;20231;-64
2022/12/05 00:20:10;;;;;;;;;;;;;;;2.86;100.00;101768.19;5073132;28;20418;-65
2022/12/05 00:22:36;;;;;;;;;;;;;;;2.88;100.00;101769.97;5055256;28;20330;-62
2022/12/05 00:25:02;;;;;;;;;;;;;;;2.89;100.00;101765.66;5055031;28;19956;-67
2022/12/05 00:27:27;;;;;;;;;;;;;;;2.91;100.00;101774.31;5073130;28;19970;-62
2022/12/05 00:29:53;;;;;;;;;;;;;;;2.92;100.00;101770.88;5073209;28;20007;-60
2022/12/05 00:32:18;;;;;;;;;;;;;;;2.94;100.00;101779.56;5054528;28;19921;-67
2022/12/05 00:34:43;;;;;;;;;;;;;;;2.94;100.00;101772.66;5034752;28;1090291;-64
2022/12/05 00:37:08;;;;;;;;;;;;;;;2.97;100.00;101771.81;5073609;28;20014;-61
2022/12/05 00:39:34;;;;;;;;;;;;;;;2.99;100.00;101770.09;5073662;28;19912;-65
2022/12/05 00:41:59;;;;;;;;;;;;;;;3.01;100.00;101776.19;5073117;28;19938;-64
2022/12/05 00:44:24;;;;;;;;;;;;;;;2.99;100.00;101765.78;5073704;28;19913;-64
2022/12/05 00:46:49;;;;;;;;;;;;;;;3.05;100.00;101785.78;5073821;28;19916;-65
2022/12/05 00:49:14;;;;;;;;;;;;;;;3.05;100.00;101780.59;5073377;28;19948;-63
2022/12/05 00:51:41;;;;;;;;;;;;;;;3.05;100.00;101776.25;5073363;28;19916;-67
2022/12/05 00:54:10;;;;;;;;;;;;;;;3.07;100.00;101779.75;5055792;28;20027;-65
2022/12/05 00:56:35;;;;;;;;;;;;;;;3.07;100.00;101774.53;5055796;28;19962;-64
2022/12/05 00:59:01;;;;;;;;;;;;;;;3.06;100.00;101777.13;5055367;28;20364;-65
2022/12/05 01:01:36;;;;;;;;;;;;;;;3.08;100.00;101772.81;5054837;28;20015;-65
2022/12/05 01:04:05;;;;;;;;;;;;;;;3.08;100.00;101778.91;5054571;28;19939;-64
2022/12/05 01:06:30;;;;;;;;;;;;;;;3.10;100.00;101776.31;5054982;28;19913;-62
2022/12/05 01:08:56;;;;;;;;;;;;;;;3.14;100.00;101781.59;5072070;28;19947;-63
2022/12/05 01:11:22;;;;;;;;;;;;;;;3.17;100.00;101779.03;5073576;28;19920;-63
2022/12/05 01:13:47;;;;;;;;;;;;;;;3.17;100.00;101775.53;5055472;28;19926;-62
2022/12/05 01:16:14;;;;;;;;;;;;;;;3.17;100.00;101775.53;5055194;28;19999;-62
2022/12/05 01:18:39;;;;;;;;;;;;;;;3.17;100.00;101779.03;5055012;28;19923;-67
2022/12/05 01:21:04;;;;;;;;;;;;;;;3.19;100.00;101779.03;5073223;28;19916;-65
2022/12/05 01:23:30;;;;;;;;;;;;;;;3.18;100.00;101775.53;5072840;28;19924;-63
2022/12/05 01:25:55;;;;;;;;;;;;;;;3.18;100.00;101767.75;5073143;28;19924;-64
2022/12/05 01:28:20;;;;;;;;;;;;;;;3.20;100.00;101773.88;5072961;28;19961;-62
2022/12/05 01:30:46;;;;;;;;;;;;;;;3.21;100.00;101769.53;5072418;28;19920;-66
2022/12/05 01:33:12;;;;;;;;;;;;;;;3.22;100.00;101768.66;5054861;28;19924;-64
2022/12/05 01:35:38;;;;;;;;;;;;;;;3.22;100.00;101777.34;5054324;28;19923;-65
2022/12/05 01:38:03;;;;;;;;;;;;;;;3.24;100.00;101764.38;5072830;28;19916;-66
2022/12/05 01:40:28;;;;;;;;;;;;;;;3.25;100.00;101772.19;5072418;28;19912;-67
2022/12/05 01:42:54;;;;;;;;;;;;;;;3.24;100.00;101770.41;5072673;28;20015;-65
2022/12/05 01:45:30;;;;;;;;;;;;;;;3.26;100.00;101770.47;5054294;28;20015;-66
2022/12/05 01:47:55;;;;;;;;;;;;;;;3.27;100.00;101780.00;5071844;28;19928;-64
2022/12/05 01:50:21;;;;;;;;;;;;;;;3.26;100.00;101789.56;5072465;28;19919;-64
2022/12/05 01:52:46;;;;;;;;;;;;;;;3.25;100.00;101785.19;5054597;28;19916;-65
2022/12/05 01:55:12;;;;;;;;;;;;;;;3.27;100.00;101780.88;5072306;28;20384;-65
2022/12/05 01:57:37;;;;;;;;;;;;;;;3.30;100.00;101785.22;5054728;28;19927;-61
2022/12/05 02:00:05;;;;;;;;;;;;;;;3.29;100.00;101778.31;5054397;28;19917;-63
2022/12/05 02:02:31;;;;;;;;;;;;;;;3.32;100.00;101775.75;5054324;28;19920;-61
2022/12/05 02:04:59;;;;;;;;;;;;;;;3.32;100.00;101776.63;5054697;28;19961;-63
2022/12/05 02:07:24;;;;;;;;;;;;;;;3.31;100.00;101787.88;5054119;28;19986;-66
2022/12/05 02:09:50;;;;;;;;;;;;;;;3.32;100.00;101779.22;5054465;28;20395;-63
2022/12/05 02:12:15;;;;;;;;;;;;;;;3.35;100.00;101778.38;5072115;28;19916;-66
2022/12/05 02:14:59;;;;;;;;;;;;;;;3.35;100.00;101783.59;5054154;28;20287;-67
2022/12/05 02:17:27;;;;;;;;;;;;;;;3.38;100.00;101783.63;5058154;28;19965;-65
2022/12/05 02:19:58;;;;;;;;;;;;;;;3.37;100.00;101774.06;5054370;28;19917;-60
2022/12/05 02:22:32;;;;;;;;;;;;;;;3.36;100.00;101780.97;5071504;28;19917;-68
2022/12/05 02:24:57;;;;;;;;;;;;;;;3.34;100.00;101780.09;5071098;28;20367;-63
2022/12/05 02:27:41;;;;;;;;;;;;;;;3.35;100.00;101771.44;5072067;28;19913;-60
2022/12/05 02:30:08;;;;;;;;;;;;;;;3.36;100.00;101780.09;5071832;28;19973;-65
2022/12/05 02:32:33;;;;;;;;;;;;;;;3.37;100.00;101774.94;5054317;28;19908;-64
2022/12/05 02:35:01;;;;;;;;;;;;;;;3.38;100.00;101771.50;5053675;28;19927;-62
2022/12/05 02:37:27;;;;;;;;;;;;;;;3.36;100.00;101765.38;5071746;28;19920;-60
2022/12/05 02:40:00;;;;;;;;;;;;;;;3.34;100.00;101761.88;5054173;28;19912;-62
2022/12/05 02:42:25;;;;;;;;;;;;;;;3.36;100.00;101775.78;5054307;28;19912;-62
2022/12/05 02:44:54;;;;;;;;;;;;;;;3.35;100.00;101774.06;5071985;28;20434;-64
2022/12/05 02:47:20;;;;;;;;;;;;;;;3.35;100.00;101767.97;5072479;28;19912;-61
2022/12/05 02:49:45;;;;;;;;;;;;;;;3.35;100.00;101774.06;5053830;28;19919;-63
2022/12/05 02:52:11;;;;;;;;;;;;;;;3.35;100.00;101773.16;5053599;28;19916;-64
2022/12/05 02:54:37;;;;;;;;;;;;;;;3.35;100.00;101780.97;5053755;28;19916;-64
2022/12/05 02:57:02;;;;;;;;;;;;;;;3.35;100.00;101781.84;5054053;28;19912;-64
2022/12/05 02:59:27;;;;;;;;;;;;;;;3.37;100.00;101785.34;5054095;28;20374;-62
2022/12/05 03:01:53;;;;;;;;;;;;;;;3.38;100.00;101781.03;5035232;28;19919;-63
2022/12/05 03:04:18;;;;;;;;;;;;;;;3.34;100.00;101785.31;5071687;28;19946;-64
2022/12/05 03:06:50;;;;;;;;;;;;;;;3.36;100.00;101785.31;5036790;28;19920;-65
2022/12/05 03:09:17;;;;;;;;;;;;;;;3.37;100.00;101781.84;5057384;28;19923;-68
2022/12/05 03:11:49;;;;;;;;;;;;;;;3.38;100.00;101781.03;5072230;28;19965;-67
2022/12/05 03:14:17;;;;;;;;;;;;;;;3.33;100.00;101780.06;5071592;28;20412;-63
2022/12/05 03:16:46;;;;;;;;;;;;;;;3.32;100.00;101779.22;5053570;28;19943;-64
2022/12/05 03:19:14;;;;;;;;;;;;;;;3.34;100.00;101787.03;5053445;28;19924;-63
2022/12/05 03:21:40;;;;;;;;;;;;;;;3.34;100.00;101780.09;5053650;28;19917;-62
2022/12/05 03:24:05;;;;;;;;;;;;;;;3.35;100.00;101787.06;5053462;28;19935;-64
2022/12/05 03:26:36;;;;;;;;;;;;;;;3.32;100.00;101781.81;5053461;28;19922;-63
2022/12/05 03:29:20;;;;;;;;;;;;;;;3.33;100.00;101777.47;5071747;28;19916;-65
2022/12/05 03:31:57;;;;;;;;;;;;;;;3.34;100.00;101782.69;5056803;28;19921;-67
2022/12/05 03:34:41;;;;;;;;;;;;;;;3.37;100.00;101784.47;5048208;28;19924;-65
2022/12/05 03:37:09;;;;;;;;;;;;;;;3.37;100.00;101787.06;5075533;28;19950;-63
2022/12/05 03:39:36;;;;;;;;;;;;;;;3.37;100.00;101784.47;5057207;28;19982;-66
2022/12/05 03:42:05;;;;;;;;;;;;;;;3.36;100.00;101795.72;5074698;28;20027;-64
2022/12/05 03:44:48;;;;;;;;;;;;;;;3.39;100.00;101795.75;5038474;28;19920;-63
2022/12/05 03:47:22;;;;;;;;;;;;;;;3.39;100.00;101791.44;5056451;28;20302;-66
2022/12/05 03:49:51;;;;;;;;;;;;;;;3.39;100.00;101788.81;5053686;28;19924;-64
2022/12/05 03:52:19;;;;;;;;;;;;;;;3.41;100.00;101794.06;5040808;28;20313;-66
2022/12/05 03:54:44;;;;;;;;;;;;;;;3.41;100.00;101794.91;5074675;28;19916;-60
2022/12/05 03:57:16;;;;;;;;;;;;;;;3.42;100.00;101793.19;5056937;28;19939;-64
2022/12/05 03:59:53;;;;;;;;;;;;;;;3.42;100.00;101791.47;5075032;28;19942;-67
2022/12/05 04:02:20;;;;;;;;;;;;;;;3.42;100.00;101794.06;5074483;28;19924;-63
2022/12/05 04:04:57;;;;;;;;;;;;;;;3.46;100.00;101795.00;5057030;28;19913;-60
2022/12/05 04:07:23;;;;;;;;;;;;;;;3.46;100.00;101792.38;5056648;28;20272;-64
2022/12/05 04:09:49;;;;;;;;;;;;;;;3.46;100.00;101795.00;5056884;28;20058;-61
2022/12/05 04:12:16;;;;;;;;;;;;;;;3.46;100.00;101791.50;5056574;28;19918;-63
2022/12/05 04:14:49;;;;;;;;;;;;;;;3.47;100.00;101801.06;5056564;28;19916;-65
2022/12/05 04:17:24;;;;;;;;;;;;;;;3.47;100.00;101793.25;5056655;28;19912;-65
2022/12/05 04:22:50;;;;;;;;;;;;;;;3.50;100.00;101799.38;4992466;28;19917;-67
2022/12/05 04:25:34;;;;;;;;;;;;;;;3.51;100.00;101798.50;5047620;28;19925;-65
2022/12/05 04:27:59;;;;;;;;;;;;;;;3.55;100.00;101800.31;5042068;28;19989;-63
2022/12/05 04:30:25;;;;;;;;;;;;;;;3.56;100.00;101798.56;5074131;28;20449;-67
2022/12/05 04:32:50;;;;;;;;;;;;;;;3.60;100.00;101800.34;5039704;28;19923;-66
2022/12/05 04:35:17;;;;;;;;;;;;;;;3.62;100.00;101794.28;5073786;28;19916;-67
2022/12/05 04:37:43;;;;;;;;;;;;;;;3.62;100.00;101786.47;5056038;28;19951;-64
2022/12/05 04:40:12;;;;;;;;;;;;;;;3.64;100.00;101794.31;5056124;28;20413;-66
2022/12/05 04:42:38;;;;;;;;;;;;;;;3.63;100.00;101789.97;5054179;28;20360;-65
2022/12/05 04:45:07;;;;;;;;;;;;;;;3.67;100.00;101784.81;5056131;28;19912;-61
2022/12/05 04:47:35;;;;;;;;;;;;;;;3.69;100.00;101788.31;5055499;28;19923;-68
2022/12/05 04:50:00;;;;;;;;;;;;;;;3.70;100.00;101787.47;5055795;28;19920;-62
2022/12/05 04:52:27;;;;;;;;;;;;;;;3.72;100.00;101793.53;5073380;28;20016;-64
2022/12/05 04:54:53;;;;;;;;;;;;;;;3.74;100.00;101789.22;5056113;28;19919;-65
2022/12/05 04:57:22;;;;;;;;;;;;;;;3.75;100.00;101788.38;5039135;28;19916;-68
2022/12/05 04:59:47;;;;;;;;;;;;;;;3.77;100.00;101793.59;5073146;28;19921;-61
2022/12/05 05:02:13;;;;;;;;;;;;;;;3.75;100.00;101790.97;5073220;28;19977;-63
2022/12/05 05:04:43;;;;;;;;;;;;;;;3.78;100.00;101793.63;5073260;28;19944;-64
2022/12/05 05:07:09;;;;;;;;;;;;;;;3.81;100.00;101797.97;5055475;28;19995;-64
2022/12/05 05:09:34;;;;;;;;;;;;;;;3.83;100.00;101788.44;5055445;28;19934;-63
2022/12/05 05:11:59;;;;;;;;;;;;;;;3.85;100.00;101786.75;5055955;28;19916;-66
2022/12/05 05:14:25;;;;;;;;;;;;;;;3.87;100.00;101788.50;5055424;28;20495;-65
2022/12/05 05:16:51;;;;;;;;;;;;;;;3.87;100.00;101793.72;5072968;28;20409;-66
2022/12/05 05:19:16;;;;;;;;;;;;;;;3.91;100.00;101794.63;5055457;28;20391;-63
2022/12/05 05:21:41;;;;;;;;;;;;;;;3.90;100.00;101801.56;5073091;28;19920;-63
2022/12/05 05:24:08;;;;;;;;;;;;;;;3.95;100.00;101791.16;5073057;28;19967;-64
2022/12/05 05:26:34;;;;;;;;;;;;;;;3.96;100.00;101786.00;5055181;28;20004;-66
2022/12/05 05:28:59;;;;;;;;;;;;;;;3.98;100.00;101793.81;5073117;28;19931;-65
2022/12/05 05:31:25;;;;;;;;;;;;;;;4.01;100.00;101790.34;5072336;28;20298;-62
2022/12/05 05:33:51;;;;;;;;;;;;;;;4.03;100.00;101799.91;5054911;28;19923;-64
2022/12/05 05:36:16;;;;;;;;;;;;;;;4.07;100.00;101799.09;5055268;28;19955;-63
2022/12/05 05:38:42;;;;;;;;;;;;;;;4.09;100.00;101810.41;5072430;28;20328;-62
2022/12/05 05:41:11;;;;;;;;;;;;;;;4.08;100.00;101803.47;5072677;28;19926;-65
2022/12/05 05:43:38;;;;;;;;;;;;;;;4.11;100.00;101798.28;5072973;28;19916;-65
2022/12/05 05:46:03;;;;;;;;;;;;;;;4.10;100.00;101819.09;5055216;28;19916;-64
2022/12/05 05:48:29;;;;;;;;;;;;;;;4.13;100.00;101800.88;5072322;28;19966;-65
2022/12/05 05:50:54;;;;;;;;;;;;;;;4.12;100.00;101813.03;5072452;28;19916;-66
2022/12/05 05:53:19;;;;;;;;;;;;;;;4.14;100.00;101807.84;5071838;28;19912;-64
2022/12/05 05:55:44;;;;;;;;;;;;;;;4.15;100.00;101807.84;5073000;28;19920;-64
2022/12/05 05:58:10;;;;;;;;;;;;;;;4.17;100.00;101813.09;5072358;28;19920;-66
2022/12/05 06:00:35;;;;;;;;;;;;;;;4.19;100.00;101812.25;5054568;28;19975;-65
2022/12/05 06:03:00;;;;;;;;;;;;;;;4.20;100.00;101816.63;5072829;28;19946;-65
2022/12/05 06:05:25;;;;;;;;;;;;;;;4.19;100.00;101813.97;5073038;28;19920;-68
2022/12/05 06:07:53;;;;;;;;;;;;;;;4.22;100.00;101820.09;5071899;28;19923;-61
2022/12/05 06:10:18;;;;;;;;;;;;;;;4.21;100.00;101817.47;5053879;28;19912;-65
2022/12/05 06:12:44;;;;;;;;;;;;;;;4.22;100.00;101808.78;5053235;28;20019;-62
2022/12/05 06:15:09;;;;;;;;;;;;;;;4.21;100.00;101817.47;5070850;28;20520;-63
2022/12/05 06:17:34;;;;;;;;;;;;;;;4.23;100.00;101806.19;5053365;28;19920;-62
2022/12/05 06:19:59;;;;;;;;;;;;;;;4.22;100.00;101817.50;5071828;28;19917;-62
2022/12/05 06:22:25;;;;;;;;;;;;;;;4.23;100.00;101818.38;5070842;28;19920;-62
2022/12/05 06:24:50;;;;;;;;;;;;;;;4.26;100.00;101821.00;5059249;28;19924;-63
2022/12/05 06:27:15;;;;;;;;;;;;;;;4.27;100.00;101812.31;5071982;28;19912;-64
2022/12/05 06:29:40;;;;;;;;;;;;;;;4.27;100.00;101802.75;5070412;28;19958;-64
2022/12/05 06:32:06;;;;;;;;;;;;;;;4.28;100.00;101820.16;5071738;28;19916;-63
2022/12/05 06:34:31;;;;;;;;;;;;;;;4.31;100.00;101821.91;5050886;28;19924;-67
2022/12/05 06:36:57;;;;;;;;;;;;;;;4.35;100.00;101816.72;5060198;28;19924;-62
2022/12/05 06:39:22;;;;;;;;;;;;;;;4.37;100.00;101824.56;5053965;28;19912;-60
2022/12/05 06:41:47;;;;;;;;;;;;;;;4.36;100.00;101818.47;5071923;28;19920;-65
2022/12/05 06:44:12;;;;;;;;;;;;;;;4.38;100.00;101821.97;5071721;28;19960;-60
2022/12/05 06:46:38;;;;;;;;;;;;;;;4.40;100.00;101825.47;5071682;28;19982;-66
2022/12/05 06:49:03;;;;;;;;;;;;;;;4.45;100.00;101833.31;5071598;28;20024;-62
2022/12/05 06:51:28;;;;;;;;;;;;;;;4.47;100.00;101828.97;5053179;28;19917;-63
2022/12/05 06:53:56;;;;;;;;;;;;;;;4.47;100.00;101827.25;5071407;28;20391;-62
2022/12/05 06:56:22;;;;;;;;;;;;;;;4.52;100.00;101829.91;5071509;28;19916;-67
2022/12/05 06:58:48;;;;;;;;;;;;;;;4.51;100.00;101831.63;5071581;28;19924;-67
2022/12/05 07:03:58;;;;;;;;;;;;;;;4.52;100.00;101835.13;5056437;28;20243;-64
2022/12/05 07:06:24;;;;;;;;;;;;;;;4.54;100.00;101838.63;5056783;28;19995;-62
2022/12/05 07:08:49;;;;;;;;;;;;;;;4.56;100.00;101842.09;5075628;28;19916;-62
2022/12/05 07:11:14;;;;;;;;;;;;;;;4.59;100.00;101842.13;5074827;28;19917;-63
2022/12/05 07:13:40;;;;;;;;;;;;;;;4.62;100.00;101843.88;5075491;28;20432;-61
2022/12/05 07:16:08;;;;;;;;;;;;;;;4.61;100.00;101843.03;5075998;28;20271;-62
2022/12/05 07:18:34;;;;;;;;;;;;;;;4.63;100.00;101850.84;5075350;28;19913;-61
2022/12/05 07:21:00;;;;;;;;;;;;;;;4.64;100.00;101850.84;5075741;28;19986;-62
2022/12/05 07:23:25;;;;;;;;;;;;;;;4.65;100.00;101849.13;5057702;28;19916;-60
2022/12/05 07:25:51;;;;;;;;;;;;;;;4.65;100.00;101855.22;5075574;28;19958;-61
2022/12/05 07:28:16;;;;;;;;;;;;;;;4.64;100.00;101852.59;5075172;28;19916;-62
2022/12/05 07:30:41;;;;;;;;;;;;;;;4.64;100.00;101856.06;5075107;28;19920;-61
2022/12/05 07:33:06;;;;;;;;;;;;;;;4.65;100.00;101855.22;5075130;28;19920;-63
2022/12/05 07:35:32;;;;;;;;;;;;;;;4.61;100.00;101861.28;5074418;28;20015;-61
2022/12/05 07:37:57;;;;;;;;;;;;;;;4.60;100.00;101863.84;5074968;28;19920;-65
2022/12/05 07:40:25;;;;;;;;;;;;;;;4.60;100.00;101856.91;5075256;28;19916;-62
2022/12/05 07:42:52;;;;;;;;;;;;;;;4.63;100.00;101874.31;5057834;28;19913;-61
2022/12/05 07:45:17;;;;;;;;;;;;;;;4.66;100.00;101866.53;5056826;28;20452;-64
2022/12/05 07:47:42;;;;;;;;;;;;;;;4.65;100.00;101872.59;5056933;28;19952;-61
2022/12/05 07:50:08;;;;;;;;;;;;;;;4.66;100.00;101874.34;5074720;28;19970;-60
2022/12/05 07:52:33;;;;;;;;;;;;;;;4.68;100.00;101868.28;5074797;28;19916;-59
2022/12/05 07:54:58;;;;;;;;;;;;;;;4.72;100.00;101867.44;5076117;28;19942;-57
2022/12/05 07:57:24;;;;;;;;;;;;;;;4.71;100.00;101870.91;5074869;28;19913;-62
2022/12/05 07:59:49;;;;;;;;;;;;;;;4.72;100.00;101875.28;5074524;28;19916;-60
2022/12/05 08:02:14;;;;;;;;;;;;;;;4.74;100.00;101873.53;5074768;28;19924;-59
2022/12/05 08:04:39;;;;;;;;;;;;;;;4.79;100.00;101871.84;5074706;28;20282;-58
2022/12/05 08:07:04;;;;;;;;;;;;;;;4.74;100.00;101868.31;5074599;28;20355;-61
2022/12/05 08:09:30;;;;;;;;;;;;;;;4.79;100.00;101876.16;5056594;28;20342;-58
2022/12/05 08:11:55;;;;;;;;;;;;;;;4.80;100.00;101875.31;5074740;28;19924;-57
2022/12/05 08:14:20;;;;;;;;;;;;;;;4.82;100.00;101877.06;5074600;28;19960;-58
2022/12/05 08:16:45;;;;;;;;;;;;;;;4.84;100.00;101877.97;5074224;28;19924;-60
2022/12/05 08:19:15;;;;;;;;;;;;;;;4.84;100.00;101877.09;5074304;28;19913;-58
2022/12/05 08:21:41;;;;;;;;;;;;;;;4.85;100.00;101884.03;5074474;28;19924;-58
2022/12/05 08:24:06;;;;;;;;;;;;;;;4.85;100.00;101890.13;5056672;28;20291;-57
2022/12/05 08:26:32;;;;;;;;;;;;;;;4.84;100.00;101874.50;5056532;28;20025;-57
2022/12/05 08:28:58;;;;;;;;;;;;;;;4.85;100.00;101882.31;5056256;28;20019;-56
2022/12/05 08:31:24;;;;;;;;;;;;;;;4.88;100.00;101881.47;5074262;28;19962;-59
2022/12/05 08:33:50;;;;;;;;;;;;;;;4.92;100.00;101889.34;5072631;28;20391;-53
2022/12/05 08:36:15;;;;;;;;;;;;;;;4.92;100.00;101881.50;5073501;28;20366;-54
2022/12/05 08:38:41;;;;;;;;;;;;;;;4.90;100.00;101893.66;5073768;28;19913;-53
2022/12/05 08:41:08;;;;;;;;;;;;;;;4.91;100.00;101898.00;5073708;28;19908;-54
2022/12/05 08:43:33;;;;;;;;;;;;;;;4.92;100.00;101896.28;5073135;28;19995;-56
2022/12/05 08:45:58;;;;;;;;;;;;;;;4.95;100.00;101899.78;5072849;28;20004;-56
2022/12/05 08:48:24;;;;;;;;;;;;;;;4.95;100.00;101898.91;5072715;28;19917;-54
2022/12/05 08:50:49;;;;;;;;;;;;;;;4.98;100.00;101896.34;5072905;28;19956;-55
2022/12/05 08:53:14;;;;;;;;;;;;;;;4.96;100.00;101903.28;5072849;28;19920;-58
2022/12/05 08:55:39;;;;;;;;;;;;;;;4.97;100.00;101905.88;5072825;28;19970;-58
2022/12/05 08:58:05;;;;;;;;;;;;;;;4.97;100.00;101905.00;5072524;28;19917;-57
2022/12/05 09:00:30;;;;;;;;;;;;;;;4.97;100.00;101911.09;5072701;28;19924;-55
2022/12/05 09:02:55;;;;;;;;;;;;;;;4.97;100.00;101908.50;5054597;28;19919;-55
2022/12/05 09:05:21;;;;;;;;;;;;;;;4.99;100.00;101911.97;5054427;28;20306;-57
2022/12/05 09:07:46;;;;;;;;;;;;;;;5.00;100.00;101911.13;5072172;28;19912;-54
2022/12/05 09:10:12;;;;;;;;;;;;;;;5.03;100.00;101918.97;5072281;28;20043;-57
2022/12/05 09:12:37;;;;;;;;;;;;;;;5.06;100.00;101920.75;5072359;28;19982;-53
2022/12/05 09:15:03;;;;;;;;;;;;;;;5.06;100.00;101916.41;5072273;28;19951;-56
2022/12/05 09:17:28;;;;;;;;;;;;;;;5.09;100.00;101915.53;5072144;28;19917;-53
2022/12/05 09:19:53;;;;;;;;;;;;;;;5.04;100.00;101915.53;5072322;28;19917;-52
2022/12/05 09:22:18;;;;;;;;;;;;;;;5.06;100.00;101916.41;5072243;28;19912;-59
2022/12/05 09:24:43;;;;;;;;;;;;;;;5.08;100.00;101919.88;5054331;28;19913;-56
2022/12/05 09:27:09;;;;;;;;;;;;;;;5.08;100.00;101921.63;5072289;28;19916;-57
2022/12/05 09:29:34;;;;;;;;;;;;;;;5.04;100.00;101928.56;5071394;28;19931;-57
2022/12/05 09:31:59;;;;;;;;;;;;;;;5.08;100.00;101924.22;5053968;28;19935;-55
2022/12/05 09:34:24;;;;;;;;;;;;;;;5.10;100.00;101925.13;5071515;28;19947;-55
2022/12/05 09:36:50;;;;;;;;;;;;;;;5.12;100.00;101933.84;5053921;28;19943;-56
2022/12/05 09:39:16;;;;;;;;;;;;;;;5.13;100.00;101934.72;5055180;28;19964;-54
2022/12/05 09:44:46;;;;;;;;;;;;;;;5.13;100.00;101942.53;5072107;28;19919;-58
2022/12/05 09:47:16;;;;;;;;;;;;;;;5.18;100.00;101940.81;5071719;28;19924;-55
2022/12/05 09:49:49;;;;;;;;;;;;;;;5.16;100.00;101946.06;5053722;28;20022;-55
2022/12/05 09:52:21;;;;;;;;;;;;;;;5.15;100.00;101944.28;5071598;28;20401;-56
2022/12/05 09:54:47;;;;;;;;;;;;;;;5.19;100.00;101939.97;5053802;28;19966;-54
2022/12/05 09:57:12;;;;;;;;;;;;;;;5.20;100.00;101934.75;5071311;28;20419;-56
2022/12/05 09:59:37;;;;;;;;;;;;;;;5.23;100.00;101944.34;5053606;28;19920;-55
2022/12/05 10:02:21;;;;;;;;;;;;;;;5.23;100.00;101949.56;5053477;28;19920;-57
2022/12/05 10:05:21;;;;;;;;;;;;;;;5.27;100.00;101943.50;5053632;28;19965;-56
2022/12/05 10:07:47;;;;;;;;;;;;;;;5.28;100.00;101945.25;5028913;28;19983;-57
2022/12/05 10:10:27;;;;;;;;;;;;;;;5.35;100.00;101944.41;5062116;28;20367;-57
2022/12/05 10:13:13;;;;;;;;;;;;;;;5.36;100.00;101940.97;5053529;28;19958;-54
2022/12/05 10:15:41;;;;;;;;;;;;;;;5.36;100.00;101941.84;5053288;28;19939;-55
2022/12/05 10:18:12;;;;;;;;;;;;;;;5.37;100.00;101947.94;5071228;28;19982;-57
2022/12/05 10:20:51;;;;;;;;;;;;;;;5.36;100.00;101946.19;5071074;28;19943;-56
2022/12/05 10:23:26;;;;;;;;;;;;;;;5.35;100.00;101944.41;5053504;28;20385;-55
2022/12/05 10:25:54;;;;;;;;;;;;;;;5.39;100.00;101944.47;5053475;28;20027;-56
2022/12/05 10:28:31;;;;;;;;;;;;;;;5.42;100.00;101944.50;5052595;28;19919;-55
2022/12/05 10:30:57;;;;;;;;;;;;;;;5.44;100.00;101945.38;5053160;28;19954;-58
2022/12/05 10:33:23;;;;;;;;;;;;;;;5.46;100.00;101953.19;5053149;28;19917;-56
2022/12/05 10:35:52;;;;;;;;;;;;;;;5.47;100.00;101949.72;5071839;28;19963;-55
2022/12/05 10:38:27;;;;;;;;;;;;;;;5.47;100.00;101945.38;5053645;28;20256;-55
2022/12/05 10:40:53;;;;;;;;;;;;;;;5.48;100.00;101951.47;5056162;28;20410;-58
2022/12/05 10:43:26;;;;;;;;;;;;;;;5.52;100.00;101948.00;5057595;28;19915;-54
2022/12/05 10:45:51;;;;;;;;;;;;;;;5.52;100.00;101951.50;5057468;28;19912;-58
2022/12/05 10:48:17;;;;;;;;;;;;;;;5.55;100.00;101948.91;5075371;28;19925;-54
2022/12/05 10:50:43;;;;;;;;;;;;;;;5.52;100.00;101945.41;5057297;28;20371;-55
2022/12/05 10:53:12;;;;;;;;;;;;;;;5.56;100.00;101944.56;5057492;28;19916;-55
2022/12/05 10:55:41;;;;;;;;;;;;;;;5.51;100.00;101951.50;5057248;28;19923;-55
2022/12/05 10:58:23;;;;;;;;;;;;;;;5.47;100.00;101936.66;5056165;28;19971;-55
2022/12/05 11:00:50;;;;;;;;;;;;;;;5.47;100.00;101940.16;5073736;28;19921;-56
2022/12/05 11:03:26;;;;;;;;;;;;;;;5.49;100.00;101935.81;5056294;28;20387;-57
2022/12/05 11:05:52;;;;;;;;;;;;;;;5.44;100.00;101934.03;5074532;28;20016;-56
2022/12/05 11:08:24;;;;;;;;;;;;;;;5.48;100.00;101941.91;5056586;28;19927;-56
2022/12/05 11:10:56;;;;;;;;;;;;;;;5.48;100.00;101941.03;5074463;28;20010;-55
2022/12/05 11:13:24;;;;;;;;;;;;;;;5.42;100.00;101933.16;5056395;28;19920;-56
2022/12/05 11:15:50;;;;;;;;;;;;;;;5.44;100.00;101934.91;5073793;28;19919;-58
2022/12/05 11:18:26;;;;;;;;;;;;;;;5.40;100.00;101933.13;5056380;28;20282;-55
2022/12/05 11:20:51;;;;;;;;;;;;;;;5.45;100.00;101939.28;5073763;28;19917;-56
2022/12/05 11:23:27;;;;;;;;;;;;;;;5.39;100.00;101936.63;5056285;28;20310;-55
2022/12/05 11:25:52;;;;;;;;;;;;;;;5.38;100.00;101939.22;5056676;28;19917;-53
2022/12/05 11:28:18;;;;;;;;;;;;;;;5.40;100.00;101937.50;5074015;28;20355;-56
2022/12/05 11:31:01;;;;;;;;;;;;;;;5.35;100.00;101933.97;5074707;28;19924;-57
2022/12/05 11:33:28;;;;;;;;;;;;;;;5.43;100.00;101940.16;5074196;28;19916;-55
2022/12/05 11:35:56;;;;;;;;;;;;;;;5.45;100.00;101931.44;5073903;28;19916;-56
2022/12/05 11:38:23;;;;;;;;;;;;;;;5.45;100.00;101935.81;5056565;28;19916;-56
2022/12/05 11:40:51;;;;;;;;;;;;;;;5.43;100.00;101930.56;5055994;28;19912;-53
2022/12/05 11:43:23;;;;;;;;;;;;;;;5.43;100.00;101938.38;5073896;28;19913;-58
2022/12/05 11:45:54;;;;;;;;;;;;;;;5.46;100.00;101929.69;5074252;28;19916;-57
2022/12/05 11:48:22;;;;;;;;;;;;;;;5.49;100.00;101933.19;5073769;28;20278;-58
2022/12/05 11:51:03;;;;;;;;;;;;;;;5.51;100.00;101936.72;5055715;28;20003;-56
2022/12/05 11:53:37;;;;;;;;;;;;;;;5.50;100.00;101928.84;5073731;28;19920;-58
2022/12/05 11:56:10;;;;;;;;;;;;;;;5.52;100.00;101927.13;5055956;28;19912;-57
2022/12/05 11:58:45;;;;;;;;;;;;;;;5.55;100.00;101934.97;5055783;28;19923;-59
2022/12/05 12:01:30;;;;;;;;;;;;;;;5.59;100.00;101934.13;5073333;28;19920;-59
2022/12/05 12:04:21;;;;;;;;;;;;;;;5.59;100.00;101929.78;5056189;28;19924;-58
2022/12/05 12:07:10;;;;;;;;;;;;;;;5.60;100.00;101931.50;5071220;28;19924;-53
2022/12/05 12:09:35;;;;;;;;;;;;;;;5.65;100.00;101936.78;5050298;28;19999;-57
2022/12/05 12:12:19;;;;;;;;;;;;;;;5.64;100.00;101933.28;5053600;28;20007;-58
2022/12/05 12:14:54;;;;;;;;;;;;;;;5.69;100.00;101934.19;5064586;28;19958;-56
2022/12/05 12:17:23;;;;;;;;;;;;;;;5.71;100.00;101930.72;5055186;28;19939;-55
2022/12/05 12:19:49;;;;;;;;;;;;;;;5.71;100.00;101935.94;5055718;28;19995;-57
2022/12/05 12:22:27;;;;;;;;;;;;;;;5.71;100.00;101926.38;5073210;28;19912;-55
2022/12/05 12:25:01;;;;;;;;;;;;;;;5.72;100.00;101937.69;5055371;28;19965;-57
2022/12/05 12:27:31;;;;;;;;;;;;;;;5.70;100.00;101932.44;5057127;28;20003;-57
2022/12/05 12:30:06;;;;;;;;;;;;;;;5.72;100.00;101929.84;5051723;28;19921;-57
2022/12/05 12:32:50;;;;;;;;;;;;;;;5.70;100.00;101935.06;5051537;28;20379;-59
2022/12/05 12:35:16;;;;;;;;;;;;;;;5.76;100.00;101931.59;5052922;28;19921;-57
2022/12/05 12:37:44;;;;;;;;;;;;;;;5.75;100.00;101928.09;5053379;28;20019;-57
2022/12/05 12:40:13;;;;;;;;;;;;;;;5.78;100.00;101930.72;5052911;28;19921;-55
2022/12/05 12:42:45;;;;;;;;;;;;;;;5.82;100.00;101929.88;5052813;28;19912;-55
2022/12/05 12:45:26;;;;;;;;;;;;;;;5.87;100.00;101925.56;5051382;28;20040;-58
2022/12/05 12:48:07;;;;;;;;;;;;;;;5.88;100.00;101924.72;5051251;28;19916;-57